sensor_id;sensor_type;location;lat;lon;timestamp;P1;durP1;ratioP1;P2;durP2;ratioP2
9320;SDS011;4699;41.950;12.514;2022-10-16T00:00:38;17.97;;;14.90;;
9320;SDS011;4699;41.950;12.514;2022-10-16T00:03:06;16.13;;;13.40;;
9320;SDS011;4699;41.950;12.514;2022-10-16T00:05:37;17.53;;;14.07;;
9320;SDS011;4699;41.950;12.514;2022-10-16T00:08:04;16.83;;;13.40;;
9320;SDS011;4699;41.950;12.514;2022-10-16T00:10:32;17.37;;;13.23;;
9320;SDS011;4699;41.950;12.514;2022-10-16T00:12:59;16.67;;;13.90;;
9320;SDS011;4699;41.950;12.514;2022-10-16T00:15:26;15.60;;;13.80;;
9320;SDS011;4699;41.950;12.514;2022-10-16T00:17:55;15.87;;;13.13;;
9320;SDS011;4699;41.950;12.514;2022-10-16T00:20:22;19.10;;;13.50;;
9320;SDS011;4699;41.950;12.514;2022-10-16T00:22:49;22.63;;;13.57;;
9320;SDS011;4699;41.950;12.514;2022-10-16T00:25:16;20.73;;;14.33;;
9320;SDS011;4699;41.950;12.514;2022-10-16T00:27:44;17.33;;;13.60;;
9320;SDS011;4699;41.950;12.514;2022-10-16T00:30:11;15.83;;;12.83;;
9320;SDS011;4699;41.950;12.514;2022-10-16T00:32:38;18.27;;;12.67;;
9320;SDS011;4699;41.950;12.514;2022-10-16T00:35:07;18.03;;;13.17;;
9320;SDS011;4699;41.950;12.514;2022-10-16T00:37:34;17.40;;;12.40;;
9320;SDS011;4699;41.950;12.514;2022-10-16T00:40:01;20.00;;;12.93;;
9320;SDS011;4699;41.950;12.514;2022-10-16T00:42:29;22.57;;;14.90;;
9320;SDS011;4699;41.950;12.514;2022-10-16T00:44:56;20.40;;;18.10;;
9320;SDS011;4699;41.950;12.514;2022-10-16T00:47:24;19.87;;;17.30;;
9320;SDS011;4699;41.950;12.514;2022-10-16T00:50:03;23.13;;;18.90;;
9320;SDS011;4699;41.950;12.514;2022-10-16T00:52:33;22.47;;;15.53;;
9320;SDS011;4699;41.950;12.514;2022-10-16T00:55:00;18.90;;;15.27;;
9320;SDS011;4699;41.950;12.514;2022-10-16T00:57:29;18.50;;;14.20;;
9320;SDS011;4699;41.950;12.514;2022-10-16T00:59:56;22.83;;;14.37;;
9320;SDS011;4699;41.950;12.514;2022-10-16T01:02:24;15.97;;;13.80;;
9320;SDS011;4699;41.950;12.514;2022-10-16T01:04:51;15.43;;;12.67;;
9320;SDS011;4699;41.950;12.514;2022-10-16T01:07:27;15.80;;;13.53;;
9320;SDS011;4699;41.950;12.514;2022-10-16T01:10:01;15.27;;;12.57;;
9320;SDS011;4699;41.950;12.514;2022-10-16T01:12:31;15.70;;;13.10;;
9320;SDS011;4699;41.950;12.514;2022-10-16T01:15:01;21.33;;;12.93;;
9320;SDS011;4699;41.950;12.514;2022-10-16T01:17:33;14.77;;;12.43;;
9320;SDS011;4699;41.950;12.514;2022-10-16T01:20:08;20.43;;;13.30;;
9320;SDS011;4699;41.950;12.514;2022-10-16T01:22:38;13.50;;;12.10;;
9320;SDS011;4699;41.950;12.514;2022-10-16T01:25:09;22.90;;;13.60;;
9320;SDS011;4699;41.950;12.514;2022-10-16T01:27:40;17.67;;;12.20;;
9320;SDS011;4699;41.950;12.514;2022-10-16T01:30:10;16.50;;;12.87;;
9320;SDS011;4699;41.950;12.514;2022-10-16T01:32:40;14.60;;;13.10;;
9320;SDS011;4699;41.950;12.514;2022-10-16T01:35:09;20.20;;;13.33;;
9320;SDS011;4699;41.950;12.514;2022-10-16T01:37:37;16.97;;;12.90;;
9320;SDS011;4699;41.950;12.514;2022-10-16T01:40:05;13.07;;;11.67;;
9320;SDS011;4699;41.950;12.514;2022-10-16T01:42:35;17.43;;;13.13;;
9320;SDS011;4699;41.950;12.514;2022-10-16T01:45:05;17.13;;;12.93;;
9320;SDS011;4699;41.950;12.514;2022-10-16T01:47:33;15.20;;;12.60;;
9320;SDS011;4699;41.950;12.514;2022-10-16T01:50:02;14.40;;;12.87;;
9320;SDS011;4699;41.950;12.514;2022-10-16T01:52:30;14.00;;;12.60;;
9320;SDS011;4699;41.950;12.514;2022-10-16T01:54:59;15.83;;;12.27;;
9320;SDS011;4699;41.950;12.514;2022-10-16T01:57:27;15.67;;;12.23;;
9320;SDS011;4699;41.950;12.514;2022-10-16T01:59:56;16.73;;;13.20;;
9320;SDS011;4699;41.950;12.514;2022-10-16T02:02:26;18.10;;;12.40;;
9320;SDS011;4699;41.950;12.514;2022-10-16T02:04:55;17.50;;;12.57;;
9320;SDS011;4699;41.950;12.514;2022-10-16T02:07:25;14.67;;;11.63;;
9320;SDS011;4699;41.950;12.514;2022-10-16T02:09:52;13.83;;;11.77;;
9320;SDS011;4699;41.950;12.514;2022-10-16T02:12:21;11.87;;;10.53;;
9320;SDS011;4699;41.950;12.514;2022-10-16T02:14:49;14.13;;;11.93;;
9320;SDS011;4699;41.950;12.514;2022-10-16T02:17:16;14.30;;;11.23;;
9320;SDS011;4699;41.950;12.514;2022-10-16T02:19:45;15.27;;;11.60;;
9320;SDS011;4699;41.950;12.514;2022-10-16T02:22:15;13.47;;;11.47;;
9320;SDS011;4699;41.950;12.514;2022-10-16T02:24:45;13.93;;;11.23;;
9320;SDS011;4699;41.950;12.514;2022-10-16T02:27:17;12.83;;;10.47;;
9320;SDS011;4699;41.950;12.514;2022-10-16T02:29:47;13.47;;;10.57;;
9320;SDS011;4699;41.950;12.514;2022-10-16T02:32:17;11.87;;;10.07;;
9320;SDS011;4699;41.950;12.514;2022-10-16T02:34:48;13.47;;;10.30;;
9320;SDS011;4699;41.950;12.514;2022-10-16T02:37:16;18.00;;;10.07;;
9320;SDS011;4699;41.950;12.514;2022-10-16T02:39:43;15.10;;;10.73;;
9320;SDS011;4699;41.950;12.514;2022-10-16T02:42:11;12.73;;;10.63;;
9320;SDS011;4699;41.950;12.514;2022-10-16T02:44:38;12.13;;;10.30;;
9320;SDS011;4699;41.950;12.514;2022-10-16T02:47:05;13.37;;;10.37;;
9320;SDS011;4699;41.950;12.514;2022-10-16T02:49:32;12.80;;;10.37;;
9320;SDS011;4699;41.950;12.514;2022-10-16T02:52:01;13.57;;;9.83;;
9320;SDS011;4699;41.950;12.514;2022-10-16T02:54:29;12.77;;;10.80;;
9320;SDS011;4699;41.950;12.514;2022-10-16T02:56:56;15.67;;;10.17;;
9320;SDS011;4699;41.950;12.514;2022-10-16T02:59:23;12.53;;;10.53;;
9320;SDS011;4699;41.950;12.514;2022-10-16T03:01:50;11.07;;;9.97;;
9320;SDS011;4699;41.950;12.514;2022-10-16T03:04:18;13.63;;;11.07;;
9320;SDS011;4699;41.950;12.514;2022-10-16T03:06:45;13.30;;;11.80;;
9320;SDS011;4699;41.950;12.514;2022-10-16T03:09:13;12.73;;;10.77;;
9320;SDS011;4699;41.950;12.514;2022-10-16T03:11:41;12.13;;;10.50;;
9320;SDS011;4699;41.950;12.514;2022-10-16T03:14:08;12.30;;;10.30;;
9320;SDS011;4699;41.950;12.514;2022-10-16T03:16:35;14.40;;;10.70;;
9320;SDS011;4699;41.950;12.514;2022-10-16T03:19:02;15.17;;;10.60;;
9320;SDS011;4699;41.950;12.514;2022-10-16T03:21:30;12.43;;;9.77;;
9320;SDS011;4699;41.950;12.514;2022-10-16T03:23:57;10.87;;;9.70;;
9320;SDS011;4699;41.950;12.514;2022-10-16T03:26:26;11.47;;;9.90;;
9320;SDS011;4699;41.950;12.514;2022-10-16T03:28:53;12.53;;;11.00;;
9320;SDS011;4699;41.950;12.514;2022-10-16T03:31:20;18.53;;;10.53;;
9320;SDS011;4699;41.950;12.514;2022-10-16T03:33:47;13.07;;;11.03;;
9320;SDS011;4699;41.950;12.514;2022-10-16T03:36:15;16.30;;;10.60;;
9320;SDS011;4699;41.950;12.514;2022-10-16T03:38:42;12.60;;;10.20;;
9320;SDS011;4699;41.950;12.514;2022-10-16T03:41:09;13.37;;;9.97;;
9320;SDS011;4699;41.950;12.514;2022-10-16T03:43:38;12.77;;;10.20;;
9320;SDS011;4699;41.950;12.514;2022-10-16T03:46:05;14.20;;;9.97;;
9320;SDS011;4699;41.950;12.514;2022-10-16T03:48:32;12.70;;;10.10;;
9320;SDS011;4699;41.950;12.514;2022-10-16T03:51:00;13.13;;;10.07;;
9320;SDS011;4699;41.950;12.514;2022-10-16T03:53:27;14.17;;;10.30;;
9320;SDS011;4699;41.950;12.514;2022-10-16T03:55:54;14.67;;;9.73;;
9320;SDS011;4699;41.950;12.514;2022-10-16T03:58:21;10.57;;;9.47;;
9320;SDS011;4699;41.950;12.514;2022-10-16T04:00:50;13.60;;;9.57;;
9320;SDS011;4699;41.950;12.514;2022-10-16T04:03:18;13.90;;;9.77;;
9320;SDS011;4699;41.950;12.514;2022-10-16T04:05:46;11.27;;;9.77;;
9320;SDS011;4699;41.950;12.514;2022-10-16T04:08:13;14.10;;;8.97;;
9320;SDS011;4699;41.950;12.514;2022-10-16T04:10:42;12.03;;;9.50;;
9320;SDS011;4699;41.950;12.514;2022-10-16T04:13:09;15.10;;;8.97;;
9320;SDS011;4699;41.950;12.514;2022-10-16T04:15:36;11.77;;;9.87;;
9320;SDS011;4699;41.950;12.514;2022-10-16T04:18:05;12.77;;;9.57;;
9320;SDS011;4699;41.950;12.514;2022-10-16T04:20:32;10.83;;;9.73;;
9320;SDS011;4699;41.950;12.514;2022-10-16T04:23:00;12.43;;;9.67;;
9320;SDS011;4699;41.950;12.514;2022-10-16T04:25:27;15.47;;;9.30;;
9320;SDS011;4699;41.950;12.514;2022-10-16T04:27:54;12.63;;;9.60;;
9320;SDS011;4699;41.950;12.514;2022-10-16T04:30:22;10.63;;;9.57;;
9320;SDS011;4699;41.950;12.514;2022-10-16T04:32:49;12.30;;;9.30;;
9320;SDS011;4699;41.950;12.514;2022-10-16T04:35:18;13.73;;;9.43;;
9320;SDS011;4699;41.950;12.514;2022-10-16T04:37:46;12.50;;;9.63;;
9320;SDS011;4699;41.950;12.514;2022-10-16T04:40:13;12.17;;;9.30;;
9320;SDS011;4699;41.950;12.514;2022-10-16T04:42:40;11.63;;;9.33;;
9320;SDS011;4699;41.950;12.514;2022-10-16T04:45:08;12.77;;;9.73;;
9320;SDS011;4699;41.950;12.514;2022-10-16T04:47:35;12.13;;;9.00;;
9320;SDS011;4699;41.950;12.514;2022-10-16T04:50:03;11.80;;;8.80;;
9320;SDS011;4699;41.950;12.514;2022-10-16T04:52:32;17.30;;;9.43;;
9320;SDS011;4699;41.950;12.514;2022-10-16T04:54:59;11.20;;;9.87;;
9320;SDS011;4699;41.950;12.514;2022-10-16T04:57:27;10.43;;;9.40;;
9320;SDS011;4699;41.950;12.514;2022-10-16T04:59:55;13.47;;;10.33;;
9320;SDS011;4699;41.950;12.514;2022-10-16T05:02:22;11.30;;;9.63;;
9320;SDS011;4699;41.950;12.514;2022-10-16T05:04:49;11.60;;;10.17;;
9320;SDS011;4699;41.950;12.514;2022-10-16T05:07:17;13.50;;;10.07;;
9320;SDS011;4699;41.950;12.514;2022-10-16T05:09:45;11.67;;;9.80;;
9320;SDS011;4699;41.950;12.514;2022-10-16T05:12:13;13.53;;;10.23;;
9320;SDS011;4699;41.950;12.514;2022-10-16T05:14:40;15.63;;;11.13;;
9320;SDS011;4699;41.950;12.514;2022-10-16T05:17:07;14.30;;;9.70;;
9320;SDS011;4699;41.950;12.514;2022-10-16T05:19:35;10.93;;;9.50;;
9320;SDS011;4699;41.950;12.514;2022-10-16T05:22:02;12.03;;;9.57;;
9320;SDS011;4699;41.950;12.514;2022-10-16T05:24:29;12.73;;;9.27;;
9320;SDS011;4699;41.950;12.514;2022-10-16T05:26:58;13.63;;;9.50;;
9320;SDS011;4699;41.950;12.514;2022-10-16T05:29:25;10.10;;;9.07;;
9320;SDS011;4699;41.950;12.514;2022-10-16T05:31:52;11.33;;;10.23;;
9320;SDS011;4699;41.950;12.514;2022-10-16T05:34:20;11.83;;;8.90;;
9320;SDS011;4699;41.950;12.514;2022-10-16T05:36:47;12.17;;;9.77;;
9320;SDS011;4699;41.950;12.514;2022-10-16T05:39:15;10.07;;;9.00;;
9320;SDS011;4699;41.950;12.514;2022-10-16T05:41:43;9.47;;;8.47;;
9320;SDS011;4699;41.950;12.514;2022-10-16T05:44:12;11.43;;;9.73;;
9320;SDS011;4699;41.950;12.514;2022-10-16T05:46:39;11.70;;;9.47;;
9320;SDS011;4699;41.950;12.514;2022-10-16T05:49:06;10.20;;;9.10;;
9320;SDS011;4699;41.950;12.514;2022-10-16T05:51:33;10.53;;;9.33;;
9320;SDS011;4699;41.950;12.514;2022-10-16T05:54:00;11.10;;;9.67;;
9320;SDS011;4699;41.950;12.514;2022-10-16T05:56:28;11.53;;;9.63;;
9320;SDS011;4699;41.950;12.514;2022-10-16T05:58:55;12.87;;;10.40;;
9320;SDS011;4699;41.950;12.514;2022-10-16T06:01:23;14.80;;;10.00;;
9320;SDS011;4699;41.950;12.514;2022-10-16T06:03:51;13.43;;;9.97;;
9320;SDS011;4699;41.950;12.514;2022-10-16T06:06:19;10.87;;;9.63;;
9320;SDS011;4699;41.950;12.514;2022-10-16T06:08:46;10.87;;;9.77;;
9320;SDS011;4699;41.950;12.514;2022-10-16T06:11:15;13.63;;;9.20;;
9320;SDS011;4699;41.950;12.514;2022-10-16T06:13:42;11.13;;;9.97;;
9320;SDS011;4699;41.950;12.514;2022-10-16T06:16:11;17.17;;;10.43;;
9320;SDS011;4699;41.950;12.514;2022-10-16T06:18:40;19.80;;;9.70;;
9320;SDS011;4699;41.950;12.514;2022-10-16T06:21:11;11.73;;;10.23;;
9320;SDS011;4699;41.950;12.514;2022-10-16T06:23:40;15.47;;;10.23;;
9320;SDS011;4699;41.950;12.514;2022-10-16T06:26:11;15.10;;;9.93;;
9320;SDS011;4699;41.950;12.514;2022-10-16T06:28:39;11.37;;;10.17;;
9320;SDS011;4699;41.950;12.514;2022-10-16T06:31:07;13.63;;;10.80;;
9320;SDS011;4699;41.950;12.514;2022-10-16T06:33:35;12.73;;;9.73;;
9320;SDS011;4699;41.950;12.514;2022-10-16T06:36:05;12.60;;;10.37;;
9320;SDS011;4699;41.950;12.514;2022-10-16T06:38:33;11.50;;;10.33;;
9320;SDS011;4699;41.950;12.514;2022-10-16T06:41:00;15.47;;;10.33;;
9320;SDS011;4699;41.950;12.514;2022-10-16T06:43:28;12.37;;;10.93;;
9320;SDS011;4699;41.950;12.514;2022-10-16T06:45:57;17.20;;;10.83;;
9320;SDS011;4699;41.950;12.514;2022-10-16T06:48:25;12.10;;;9.50;;
9320;SDS011;4699;41.950;12.514;2022-10-16T06:50:56;12.07;;;10.60;;
9320;SDS011;4699;41.950;12.514;2022-10-16T06:53:25;11.33;;;10.07;;
9320;SDS011;4699;41.950;12.514;2022-10-16T06:55:52;13.93;;;11.50;;
9320;SDS011;4699;41.950;12.514;2022-10-16T06:58:20;14.93;;;10.80;;
9320;SDS011;4699;41.950;12.514;2022-10-16T07:00:48;13.27;;;11.00;;
9320;SDS011;4699;41.950;12.514;2022-10-16T07:03:15;10.77;;;9.43;;
9320;SDS011;4699;41.950;12.514;2022-10-16T07:05:42;12.10;;;10.40;;
9320;SDS011;4699;41.950;12.514;2022-10-16T07:08:10;13.57;;;11.07;;
9320;SDS011;4699;41.950;12.514;2022-10-16T07:10:38;12.70;;;10.80;;
9320;SDS011;4699;41.950;12.514;2022-10-16T07:13:06;15.47;;;10.30;;
9320;SDS011;4699;41.950;12.514;2022-10-16T07:15:33;13.70;;;10.67;;
9320;SDS011;4699;41.950;12.514;2022-10-16T07:18:01;12.27;;;11.07;;
9320;SDS011;4699;41.950;12.514;2022-10-16T07:20:28;20.90;;;18.73;;
9320;SDS011;4699;41.950;12.514;2022-10-16T07:22:57;14.00;;;11.33;;
9320;SDS011;4699;41.950;12.514;2022-10-16T07:25:25;15.77;;;10.90;;
9320;SDS011;4699;41.950;12.514;2022-10-16T07:27:53;10.47;;;9.37;;
9320;SDS011;4699;41.950;12.514;2022-10-16T07:30:22;11.60;;;9.63;;
9320;SDS011;4699;41.950;12.514;2022-10-16T07:32:50;11.70;;;9.47;;
9320;SDS011;4699;41.950;12.514;2022-10-16T07:35:18;10.30;;;8.40;;
9320;SDS011;4699;41.950;12.514;2022-10-16T07:37:48;10.43;;;7.87;;
9320;SDS011;4699;41.950;12.514;2022-10-16T07:40:15;9.37;;;6.73;;
9320;SDS011;4699;41.950;12.514;2022-10-16T07:42:43;8.73;;;7.33;;
9320;SDS011;4699;41.950;12.514;2022-10-16T07:45:11;10.77;;;6.60;;
9320;SDS011;4699;41.950;12.514;2022-10-16T07:47:39;7.87;;;6.53;;
9320;SDS011;4699;41.950;12.514;2022-10-16T07:50:06;14.00;;;6.97;;
9320;SDS011;4699;41.950;12.514;2022-10-16T07:52:33;7.17;;;6.53;;
9320;SDS011;4699;41.950;12.514;2022-10-16T07:55:00;6.47;;;5.97;;
9320;SDS011;4699;41.950;12.514;2022-10-16T07:57:28;8.97;;;7.07;;
9320;SDS011;4699;41.950;12.514;2022-10-16T07:59:55;8.00;;;6.67;;
9320;SDS011;4699;41.950;12.514;2022-10-16T08:02:24;9.53;;;7.97;;
9320;SDS011;4699;41.950;12.514;2022-10-16T08:04:51;13.50;;;10.83;;
9320;SDS011;4699;41.950;12.514;2022-10-16T08:07:18;11.23;;;7.60;;
9320;SDS011;4699;41.950;12.514;2022-10-16T08:09:48;9.70;;;8.50;;
9320;SDS011;4699;41.950;12.514;2022-10-16T08:12:16;10.77;;;8.07;;
9320;SDS011;4699;41.950;12.514;2022-10-16T08:14:43;9.17;;;8.00;;
9320;SDS011;4699;41.950;12.514;2022-10-16T08:17:14;10.17;;;7.90;;
9320;SDS011;4699;41.950;12.514;2022-10-16T08:19:45;8.50;;;7.47;;
9320;SDS011;4699;41.950;12.514;2022-10-16T08:22:12;12.20;;;7.37;;
9320;SDS011;4699;41.950;12.514;2022-10-16T08:24:39;9.37;;;7.07;;
9320;SDS011;4699;41.950;12.514;2022-10-16T08:27:07;10.67;;;7.40;;
9320;SDS011;4699;41.950;12.514;2022-10-16T08:29:35;8.50;;;6.77;;
9320;SDS011;4699;41.950;12.514;2022-10-16T08:32:03;8.00;;;6.70;;
9320;SDS011;4699;41.950;12.514;2022-10-16T08:34:31;9.35;;;6.55;;
9320;SDS011;4699;41.950;12.514;2022-10-16T08:36:59;7.67;;;6.43;;
9320;SDS011;4699;41.950;12.514;2022-10-16T08:39:27;7.28;;;6.57;;
9320;SDS011;4699;41.950;12.514;2022-10-16T08:44:43;8.33;;;6.67;;
9320;SDS011;4699;41.950;12.514;2022-10-16T08:47:16;8.43;;;6.80;;
9320;SDS011;4699;41.950;12.514;2022-10-16T08:49:50;8.47;;;7.03;;
9320;SDS011;4699;41.950;12.514;2022-10-16T08:52:23;9.87;;;6.67;;
9320;SDS011;4699;41.950;12.514;2022-10-16T08:54:53;9.33;;;6.70;;
9320;SDS011;4699;41.950;12.514;2022-10-16T08:57:22;15.57;;;8.13;;
9320;SDS011;4699;41.950;12.514;2022-10-16T08:59:51;8.30;;;6.70;;
9320;SDS011;4699;41.950;12.514;2022-10-16T09:02:23;9.18;;;6.78;;
9320;SDS011;4699;41.950;12.514;2022-10-16T09:04:56;9.05;;;6.05;;
9320;SDS011;4699;41.950;12.514;2022-10-16T09:07:28;9.47;;;6.13;;
9320;SDS011;4699;41.950;12.514;2022-10-16T09:10:06;7.90;;;6.13;;
9320;SDS011;4699;41.950;12.514;2022-10-16T09:12:37;8.43;;;5.90;;
9320;SDS011;4699;41.950;12.514;2022-10-16T09:15:12;7.35;;;5.82;;
9320;SDS011;4699;41.950;12.514;2022-10-16T09:17:43;6.85;;;5.80;;
9320;SDS011;4699;41.950;12.514;2022-10-16T09:23:10;8.47;;;6.60;;
9320;SDS011;4699;41.950;12.514;2022-10-16T09:25:39;13.60;;;6.88;;
9320;SDS011;4699;41.950;12.514;2022-10-16T09:28:08;7.43;;;6.70;;
9320;SDS011;4699;41.950;12.514;2022-10-16T09:30:35;8.30;;;6.50;;
9320;SDS011;4699;41.950;12.514;2022-10-16T09:33:04;8.07;;;7.00;;
9320;SDS011;4699;41.950;12.514;2022-10-16T09:35:31;9.55;;;6.40;;
9320;SDS011;4699;41.950;12.514;2022-10-16T09:38:00;8.23;;;6.27;;
9320;SDS011;4699;41.950;12.514;2022-10-16T09:40:30;7.10;;;6.38;;
9320;SDS011;4699;41.950;12.514;2022-10-16T09:43:00;7.82;;;6.30;;
9320;SDS011;4699;41.950;12.514;2022-10-16T09:45:28;9.73;;;6.18;;
9320;SDS011;4699;41.950;12.514;2022-10-16T09:47:56;9.80;;;5.57;;
9320;SDS011;4699;41.950;12.514;2022-10-16T09:50:24;11.75;;;6.18;;
9320;SDS011;4699;41.950;12.514;2022-10-16T09:53:02;8.32;;;5.97;;
9320;SDS011;4699;41.950;12.514;2022-10-16T09:55:31;7.63;;;5.90;;
9320;SDS011;4699;41.950;12.514;2022-10-16T09:57:58;11.32;;;6.10;;
9320;SDS011;4699;41.950;12.514;2022-10-16T10:00:26;12.13;;;6.10;;
9320;SDS011;4699;41.950;12.514;2022-10-16T10:02:55;8.27;;;6.63;;
9320;SDS011;4699;41.950;12.514;2022-10-16T10:05:22;11.90;;;7.38;;
9320;SDS011;4699;41.950;12.514;2022-10-16T10:07:54;8.07;;;5.88;;
9320;SDS011;4699;41.950;12.514;2022-10-16T10:10:23;9.93;;;6.32;;
9320;SDS011;4699;41.950;12.514;2022-10-16T10:12:52;10.07;;;6.35;;
9320;SDS011;4699;41.950;12.514;2022-10-16T10:15:20;9.57;;;5.70;;
9320;SDS011;4699;41.950;12.514;2022-10-16T10:17:49;7.38;;;6.03;;
9320;SDS011;4699;41.950;12.514;2022-10-16T10:20:24;6.63;;;5.15;;
9320;SDS011;4699;41.950;12.514;2022-10-16T10:22:52;7.07;;;5.50;;
9320;SDS011;4699;41.950;12.514;2022-10-16T10:25:31;7.25;;;5.50;;
9320;SDS011;4699;41.950;12.514;2022-10-16T10:28:14;13.70;;;10.55;;
9320;SDS011;4699;41.950;12.514;2022-10-16T10:30:47;8.02;;;4.65;;
9320;SDS011;4699;41.950;12.514;2022-10-16T10:33:19;9.27;;;4.95;;
9320;SDS011;4699;41.950;12.514;2022-10-16T10:35:49;7.28;;;4.60;;
9320;SDS011;4699;41.950;12.514;2022-10-16T10:38:23;6.53;;;4.25;;
9320;SDS011;4699;41.950;12.514;2022-10-16T10:40:56;7.40;;;4.13;;
9320;SDS011;4699;41.950;12.514;2022-10-16T10:43:32;5.38;;;4.30;;
9320;SDS011;4699;41.950;12.514;2022-10-16T10:46:04;6.88;;;3.67;;
9320;SDS011;4699;41.950;12.514;2022-10-16T10:48:44;6.30;;;4.32;;
9320;SDS011;4699;41.950;12.514;2022-10-16T10:51:14;6.53;;;3.90;;
9320;SDS011;4699;41.950;12.514;2022-10-16T10:53:47;7.78;;;3.90;;
9320;SDS011;4699;41.950;12.514;2022-10-16T10:56:20;5.97;;;3.53;;
9320;SDS011;4699;41.950;12.514;2022-10-16T10:58:57;3.78;;;2.70;;
9320;SDS011;4699;41.950;12.514;2022-10-16T11:01:30;4.57;;;3.08;;
9320;SDS011;4699;41.950;12.514;2022-10-16T11:06:44;3.30;;;3.03;;
9320;SDS011;4699;41.950;12.514;2022-10-16T11:09:15;7.00;;;2.95;;
9320;SDS011;4699;41.950;12.514;2022-10-16T11:11:43;4.72;;;3.15;;
9320;SDS011;4699;41.950;12.514;2022-10-16T11:14:14;4.53;;;3.15;;
9320;SDS011;4699;41.950;12.514;2022-10-16T11:16:42;5.03;;;2.90;;
9320;SDS011;4699;41.950;12.514;2022-10-16T11:19:11;7.03;;;2.42;;
9320;SDS011;4699;41.950;12.514;2022-10-16T11:21:42;4.57;;;2.22;;
9320;SDS011;4699;41.950;12.514;2022-10-16T11:24:14;15.13;;;4.13;;
9320;SDS011;4699;41.950;12.514;2022-10-16T11:26:43;4.35;;;2.28;;
9320;SDS011;4699;41.950;12.514;2022-10-16T11:29:13;5.53;;;1.80;;
9320;SDS011;4699;41.950;12.514;2022-10-16T11:31:43;2.78;;;1.70;;
9320;SDS011;4699;41.950;12.514;2022-10-16T11:34:12;4.43;;;1.83;;
9320;SDS011;4699;41.950;12.514;2022-10-16T11:36:44;2.35;;;1.40;;
9320;SDS011;4699;41.950;12.514;2022-10-16T11:39:18;4.55;;;2.00;;
9320;SDS011;4699;41.950;12.514;2022-10-16T11:41:47;2.38;;;1.58;;
9320;SDS011;4699;41.950;12.514;2022-10-16T11:44:27;4.82;;;1.90;;
9320;SDS011;4699;41.950;12.514;2022-10-16T11:47:01;1.75;;;1.42;;
9320;SDS011;4699;41.950;12.514;2022-10-16T11:49:32;2.78;;;2.00;;
9320;SDS011;4699;41.950;12.514;2022-10-16T11:52:02;2.80;;;1.70;;
9320;SDS011;4699;41.950;12.514;2022-10-16T11:54:35;2.72;;;1.70;;
9320;SDS011;4699;41.950;12.514;2022-10-16T11:57:07;4.75;;;1.50;;
9320;SDS011;4699;41.950;12.514;2022-10-16T11:59:39;2.78;;;1.92;;
9320;SDS011;4699;41.950;12.514;2022-10-16T12:02:25;2.15;;;1.63;;
9320;SDS011;4699;41.950;12.514;2022-10-16T12:04:55;6.55;;;2.15;;
9320;SDS011;4699;41.950;12.514;2022-10-16T12:07:26;4.53;;;1.73;;
9320;SDS011;4699;41.950;12.514;2022-10-16T12:09:54;3.03;;;1.65;;
9320;SDS011;4699;41.950;12.514;2022-10-16T12:12:26;4.28;;;2.17;;
9320;SDS011;4699;41.950;12.514;2022-10-16T12:17:38;5.85;;;2.47;;
9320;SDS011;4699;41.950;12.514;2022-10-16T12:22:52;2.92;;;1.80;;
9320;SDS011;4699;41.950;12.514;2022-10-16T12:25:21;1.75;;;1.35;;
9320;SDS011;4699;41.950;12.514;2022-10-16T12:27:56;2.50;;;1.73;;
9320;SDS011;4699;41.950;12.514;2022-10-16T12:30:24;1.95;;;1.50;;
9320;SDS011;4699;41.950;12.514;2022-10-16T12:32:54;4.43;;;2.10;;
9320;SDS011;4699;41.950;12.514;2022-10-16T12:35:23;3.08;;;1.70;;
9320;SDS011;4699;41.950;12.514;2022-10-16T12:37:51;3.45;;;2.00;;
9320;SDS011;4699;41.950;12.514;2022-10-16T12:40:26;4.30;;;1.98;;
9320;SDS011;4699;41.950;12.514;2022-10-16T12:42:54;3.67;;;1.95;;
9320;SDS011;4699;41.950;12.514;2022-10-16T12:45:26;2.22;;;1.60;;
9320;SDS011;4699;41.950;12.514;2022-10-16T12:47:55;4.18;;;1.73;;
9320;SDS011;4699;41.950;12.514;2022-10-16T12:50:23;5.93;;;2.95;;
9320;SDS011;4699;41.950;12.514;2022-10-16T12:52:51;4.13;;;1.95;;
9320;SDS011;4699;41.950;12.514;2022-10-16T12:55:19;2.95;;;2.00;;
9320;SDS011;4699;41.950;12.514;2022-10-16T12:57:50;1.73;;;1.50;;
9320;SDS011;4699;41.950;12.514;2022-10-16T13:00:24;4.80;;;2.13;;
9320;SDS011;4699;41.950;12.514;2022-10-16T13:05:44;5.50;;;2.20;;
9320;SDS011;4699;41.950;12.514;2022-10-16T13:08:22;2.10;;;1.80;;
9320;SDS011;4699;41.950;12.514;2022-10-16T13:10:55;3.13;;;2.00;;
9320;SDS011;4699;41.950;12.514;2022-10-16T13:13:32;2.50;;;2.10;;
9320;SDS011;4699;41.950;12.514;2022-10-16T13:16:04;4.20;;;2.00;;
9320;SDS011;4699;41.950;12.514;2022-10-16T13:18:35;3.55;;;2.20;;
9320;SDS011;4699;41.950;12.514;2022-10-16T13:21:10;4.18;;;3.30;;
9320;SDS011;4699;41.950;12.514;2022-10-16T13:23:43;3.30;;;2.53;;
9320;SDS011;4699;41.950;12.514;2022-10-16T13:26:17;5.25;;;2.67;;
9320;SDS011;4699;41.950;12.514;2022-10-16T13:28:48;4.00;;;2.25;;
9320;SDS011;4699;41.950;12.514;2022-10-16T13:31:17;6.22;;;2.42;;
9320;SDS011;4699;41.950;12.514;2022-10-16T13:33:47;3.92;;;2.65;;
9320;SDS011;4699;41.950;12.514;2022-10-16T13:36:20;2.97;;;2.20;;
9320;SDS011;4699;41.950;12.514;2022-10-16T13:38:47;3.42;;;2.05;;
9320;SDS011;4699;41.950;12.514;2022-10-16T13:41:16;4.32;;;3.20;;
9320;SDS011;4699;41.950;12.514;2022-10-16T13:43:44;2.80;;;2.20;;
9320;SDS011;4699;41.950;12.514;2022-10-16T13:46:12;2.20;;;1.73;;
9320;SDS011;4699;41.950;12.514;2022-10-16T13:48:39;4.28;;;3.03;;
9320;SDS011;4699;41.950;12.514;2022-10-16T13:51:12;2.10;;;1.90;;
9320;SDS011;4699;41.950;12.514;2022-10-16T13:53:41;4.28;;;2.30;;
9320;SDS011;4699;41.950;12.514;2022-10-16T13:56:10;6.50;;;2.25;;
9320;SDS011;4699;41.950;12.514;2022-10-16T13:58:37;1.70;;;1.60;;
9320;SDS011;4699;41.950;12.514;2022-10-16T14:01:05;3.28;;;1.77;;
9320;SDS011;4699;41.950;12.514;2022-10-16T14:03:33;4.28;;;1.98;;
9320;SDS011;4699;41.950;12.514;2022-10-16T14:06:02;3.88;;;1.70;;
9320;SDS011;4699;41.950;12.514;2022-10-16T14:08:30;3.35;;;1.63;;
9320;SDS011;4699;41.950;12.514;2022-10-16T14:10:59;2.28;;;1.60;;
9320;SDS011;4699;41.950;12.514;2022-10-16T14:13:29;3.58;;;1.98;;
9320;SDS011;4699;41.950;12.514;2022-10-16T14:15:57;4.40;;;1.80;;
9320;SDS011;4699;41.950;12.514;2022-10-16T14:18:26;3.60;;;2.05;;
9320;SDS011;4699;41.950;12.514;2022-10-16T14:20:54;4.68;;;2.00;;
9320;SDS011;4699;41.950;12.514;2022-10-16T14:23:22;2.00;;;1.70;;
9320;SDS011;4699;41.950;12.514;2022-10-16T14:25:51;5.75;;;2.13;;
9320;SDS011;4699;41.950;12.514;2022-10-16T14:28:20;4.00;;;2.17;;
9320;SDS011;4699;41.950;12.514;2022-10-16T14:30:49;3.05;;;1.88;;
9320;SDS011;4699;41.950;12.514;2022-10-16T14:33:21;2.13;;;1.88;;
9320;SDS011;4699;41.950;12.514;2022-10-16T14:35:58;6.32;;;5.32;;
9320;SDS011;4699;41.950;12.514;2022-10-16T14:38:26;3.95;;;2.78;;
9320;SDS011;4699;41.950;12.514;2022-10-16T14:40:54;3.33;;;1.92;;
9320;SDS011;4699;41.950;12.514;2022-10-16T14:43:24;5.15;;;1.92;;
9320;SDS011;4699;41.950;12.514;2022-10-16T14:45:54;2.67;;;1.50;;
9320;SDS011;4699;41.950;12.514;2022-10-16T14:48:22;8.10;;;2.30;;
9320;SDS011;4699;41.950;12.514;2022-10-16T14:50:50;3.13;;;1.48;;
9320;SDS011;4699;41.950;12.514;2022-10-16T14:53:18;3.88;;;1.50;;
9320;SDS011;4699;41.950;12.514;2022-10-16T14:55:45;4.68;;;1.42;;
9320;SDS011;4699;41.950;12.514;2022-10-16T14:58:13;5.82;;;1.17;;
9320;SDS011;4699;41.950;12.514;2022-10-16T15:00:43;5.05;;;2.20;;
9320;SDS011;4699;41.950;12.514;2022-10-16T15:03:11;2.38;;;1.27;;
9320;SDS011;4699;41.950;12.514;2022-10-16T15:05:38;4.88;;;1.88;;
9320;SDS011;4699;41.950;12.514;2022-10-16T15:08:05;5.07;;;1.60;;
9320;SDS011;4699;41.950;12.514;2022-10-16T15:10:33;5.78;;;2.22;;
9320;SDS011;4699;41.950;12.514;2022-10-16T15:13:02;6.07;;;2.00;;
9320;SDS011;4699;41.950;12.514;2022-10-16T15:15:34;4.65;;;2.35;;